createdAt,value
2023-04-22T00:02:17.118Z,12.75
2023-04-22T00:07:14.041Z,10.27
2023-04-22T00:09:41.148Z,11.75
2023-04-22T00:12:08.412Z,11.75
2023-04-22T00:14:35.623Z,10.57
2023-04-22T00:17:02.353Z,9.95
2023-04-22T00:19:29.448Z,9.55
2023-04-22T00:21:56.193Z,9.45
2023-04-22T00:24:22.849Z,11.75
2023-04-22T00:26:49.569Z,13.77
2023-04-22T00:29:16.248Z,13.85
2023-04-22T00:31:42.998Z,13.20
2023-04-22T00:34:09.713Z,15.65
2023-04-22T00:36:36.384Z,15.52
2023-04-22T00:39:03.138Z,14.70
2023-04-22T00:41:31.268Z,14.88
2023-04-22T00:43:58.673Z,13.75
2023-04-22T00:46:25.731Z,14.00
2023-04-22T00:48:52.966Z,14.77
2023-04-22T00:51:19.666Z,13.52
2023-04-22T00:53:46.319Z,13.40
2023-04-22T00:56:13.312Z,14.35
2023-04-22T00:58:40.517Z,14.05
2023-04-22T01:01:07.208Z,12.77
2023-04-22T01:03:34.818Z,13.93
2023-04-22T01:06:01.654Z,13.45
2023-04-22T01:08:32.074Z,14.50
2023-04-22T01:10:58.771Z,15.50
2023-04-22T01:13:25.624Z,15.50
2023-04-22T01:15:53.500Z,16.35
2023-04-22T01:18:20.304Z,16.13
2023-04-22T01:20:46.920Z,16.48
2023-04-22T01:23:20.501Z,16.80
2023-04-22T01:25:47.813Z,17.25
2023-04-22T01:28:16.038Z,16.20
2023-04-22T01:30:44.070Z,15.95
2023-04-22T01:33:11.100Z,15.75
2023-04-22T01:35:38.396Z,15.20
2023-04-22T01:38:07.080Z,15.65
2023-04-22T01:40:34.097Z,15.88
2023-04-22T01:43:01.557Z,15.48
2023-04-22T01:45:28.726Z,14.63
2023-04-22T01:47:55.832Z,14.50
2023-04-22T01:50:23.276Z,15.63
2023-04-22T01:52:50.079Z,15.35
2023-04-22T01:55:17.029Z,15.20
2023-04-22T01:57:43.822Z,15.10
2023-04-22T02:00:11.177Z,15.95
2023-04-22T02:02:38.088Z,15.13
2023-04-22T02:05:06.784Z,14.48
2023-04-22T02:07:33.454Z,15.93
2023-04-22T02:10:01.586Z,16.02
2023-04-22T02:12:28.276Z,14.40
2023-04-22T02:14:54.914Z,15.70
2023-04-22T02:17:22.398Z,18.13
2023-04-22T02:19:49.154Z,17.60
2023-04-22T02:22:16.727Z,16.73
2023-04-22T02:24:43.430Z,19.50
2023-04-22T02:27:10.144Z,17.98
2023-04-22T02:29:37.028Z,19.83
2023-04-22T02:32:03.886Z,20.70
2023-04-22T02:34:30.579Z,20.52
2023-04-22T02:36:57.253Z,18.30
2023-04-22T02:39:23.900Z,16.92
2023-04-22T02:41:50.572Z,18.17
2023-04-22T02:44:17.199Z,23.08
2023-04-22T02:46:43.908Z,28.92
2023-04-22T02:49:10.579Z,32.08
2023-04-22T02:51:39.350Z,31.38
2023-04-22T02:54:06.005Z,32.90
2023-04-22T02:56:32.705Z,30.55
2023-04-22T02:58:59.362Z,29.58
2023-04-22T03:01:26.189Z,27.45
2023-04-22T03:03:53.388Z,26.92
2023-04-22T03:06:20.844Z,28.10
2023-04-22T03:08:47.575Z,26.83
2023-04-22T03:11:14.256Z,28.73
2023-04-22T03:13:40.968Z,24.67
2023-04-22T03:16:07.736Z,22.40
2023-04-22T03:18:34.406Z,23.40
2023-04-22T03:21:01.086Z,24.60
2023-04-22T03:23:27.753Z,27.05
2023-04-22T03:25:54.405Z,27.05
2023-04-22T03:28:21.202Z,26.15
2023-04-22T03:30:48.598Z,28.52
2023-04-22T03:33:15.793Z,28.00
2023-04-22T03:35:42.514Z,26.67
2023-04-22T03:38:09.199Z,29.17
2023-04-22T03:40:35.942Z,27.40
2023-04-22T03:43:03.781Z,25.80
2023-04-22T03:45:30.533Z,23.52
2023-04-22T03:47:57.355Z,21.92
2023-04-22T03:50:24.117Z,22.58
2023-04-22T03:52:51.074Z,22.45
2023-04-22T03:55:17.759Z,23.60
2023-04-22T03:57:44.463Z,21.73
2023-04-22T04:00:11.596Z,24.55
2023-04-22T04:02:38.392Z,24.05
2023-04-22T04:05:05.575Z,24.10
2023-04-22T04:07:32.413Z,22.02
2023-04-22T04:09:59.141Z,22.20
2023-04-22T04:12:25.797Z,21.90
2023-04-22T04:14:52.439Z,22.35
2023-04-22T04:17:19.162Z,19.40
2023-04-22T04:19:45.852Z,27.85
2023-04-22T04:22:12.564Z,20.60
2023-04-22T04:24:42.407Z,24.98
2023-04-22T04:27:09.144Z,39.85
2023-04-22T04:29:35.982Z,21.83
2023-04-22T04:32:03.385Z,14.50
2023-04-22T04:34:30.065Z,14.10
2023-04-22T04:36:57.136Z,17.20
2023-04-22T04:39:24.058Z,13.23
2023-04-22T04:41:55.147Z,13.45
2023-04-22T04:44:22.129Z,12.27
2023-04-22T04:46:48.911Z,10.88
2023-04-22T04:49:16.981Z,11.20
2023-04-22T04:51:43.720Z,12.55
2023-04-22T04:54:10.552Z,12.10
2023-04-22T04:56:37.238Z,10.20
2023-04-22T04:59:03.883Z,10.55
2023-04-22T05:01:30.648Z,11.25
2023-04-22T05:03:57.513Z,10.00
2023-04-22T05:06:24.385Z,9.95
2023-04-22T05:08:51.085Z,10.77
2023-04-22T05:11:17.745Z,11.32
2023-04-22T05:13:44.601Z,10.93
2023-04-22T05:16:11.299Z,10.40
2023-04-22T05:18:37.991Z,10.55
2023-04-22T05:21:04.942Z,10.18
2023-04-22T05:23:31.644Z,10.90
2023-04-22T05:25:58.570Z,10.60
2023-04-22T05:28:25.458Z,12.35
2023-04-22T05:30:52.109Z,12.77
2023-04-22T05:33:18.842Z,13.30
2023-04-22T05:35:45.535Z,13.23
2023-04-22T05:38:12.280Z,12.32
2023-04-22T05:40:40.489Z,12.90
2023-04-22T05:43:07.166Z,13.43
2023-04-22T05:45:34.040Z,15.02
2023-04-22T05:48:00.842Z,12.82
2023-04-22T05:50:28.058Z,11.23
2023-04-22T05:52:54.728Z,8.40
2023-04-22T05:55:21.388Z,10.40
2023-04-22T05:57:48.160Z,10.23
2023-04-22T06:00:15.519Z,7.47
2023-04-22T06:02:42.365Z,8.82
2023-04-22T06:05:09.910Z,6.47
2023-04-22T06:07:36.672Z,4.82
2023-04-22T06:10:05.338Z,6.55
2023-04-22T06:14:59.742Z,3.95
2023-04-22T06:17:26.502Z,4.25
2023-04-22T06:19:53.190Z,5.30
2023-04-22T06:22:21.752Z,7.65
2023-04-22T06:24:48.455Z,4.45
2023-04-22T06:27:15.166Z,4.75
2023-04-22T06:29:41.971Z,4.32
2023-04-22T06:32:08.628Z,8.60
2023-04-22T06:34:35.557Z,4.40
2023-04-22T06:37:02.249Z,3.55
2023-04-22T06:39:28.896Z,4.10
2023-04-22T06:41:55.763Z,6.68
2023-04-22T06:44:22.638Z,3.92
2023-04-22T06:46:49.345Z,4.10
2023-04-22T06:49:16.020Z,3.88
2023-04-22T06:51:42.648Z,3.63
2023-04-22T06:54:09.459Z,3.55
2023-04-22T06:56:36.301Z,3.78
2023-04-22T06:59:03.040Z,2.88
2023-04-22T07:01:29.803Z,2.60
2023-04-22T07:03:56.620Z,3.53
2023-04-22T07:06:23.452Z,3.75
2023-04-22T07:08:50.207Z,3.30
2023-04-22T07:11:16.940Z,3.53
2023-04-22T07:13:43.626Z,3.45
2023-04-22T07:16:10.568Z,3.10
2023-04-22T07:18:37.327Z,3.38
2023-04-22T07:21:04.141Z,3.25
2023-04-22T07:23:30.862Z,4.22
2023-04-22T07:25:57.714Z,4.30
2023-04-22T07:28:24.345Z,4.78
2023-04-22T07:30:51.025Z,3.97
2023-04-22T07:33:17.671Z,6.97
2023-04-22T07:35:45.424Z,4.25
2023-04-22T07:38:14.081Z,4.10
2023-04-22T07:40:41.305Z,3.75
2023-04-22T07:43:08.026Z,3.13
2023-04-22T07:45:34.949Z,3.13
2023-04-22T07:48:01.900Z,3.92
2023-04-22T07:50:28.596Z,3.28
2023-04-22T07:52:55.460Z,4.22
2023-04-22T07:55:22.225Z,4.70
2023-04-22T07:57:48.935Z,3.20
2023-04-22T08:00:16.073Z,4.00
2023-04-22T08:02:44.263Z,3.97
2023-04-22T08:05:11.716Z,3.55
2023-04-22T08:07:38.568Z,2.50
2023-04-22T08:10:06.166Z,2.70
2023-04-22T08:12:32.821Z,2.40
2023-04-22T08:14:59.488Z,3.00
2023-04-22T08:17:26.873Z,2.92
2023-04-22T08:19:53.568Z,3.47
2023-04-22T08:22:20.275Z,3.75
2023-04-22T08:24:46.946Z,3.72
2023-04-22T08:27:13.626Z,2.83
2023-04-22T08:29:40.745Z,3.03
2023-04-22T08:32:07.915Z,3.10
2023-04-22T08:34:34.694Z,2.63
2023-04-22T08:37:01.400Z,3.20
2023-04-22T08:39:28.233Z,4.07
2023-04-22T08:41:56.429Z,3.30
2023-04-22T08:44:23.169Z,2.50
2023-04-22T08:46:51.289Z,3.50
2023-04-22T08:49:19.267Z,3.10
2023-04-22T08:51:46.212Z,3.15
2023-04-22T08:54:12.945Z,2.97
2023-04-22T08:56:44.393Z,3.47
2023-04-22T08:59:12.499Z,2.22
2023-04-22T09:01:42.794Z,3.00
2023-04-22T09:04:11.480Z,3.50
2023-04-22T09:09:05.387Z,2.60
2023-04-22T09:11:33.169Z,2.90
2023-04-22T09:13:59.872Z,2.42
2023-04-22T09:16:26.656Z,2.63
2023-04-22T09:18:53.379Z,2.42
2023-04-22T09:21:20.144Z,2.55
2023-04-22T09:23:54.368Z,2.13
2023-04-22T09:26:23.531Z,2.50
2023-04-22T09:28:53.583Z,2.40
2023-04-22T09:31:21.613Z,2.85
2023-04-22T09:33:53.746Z,1.70
2023-04-22T09:36:27.371Z,2.45
2023-04-22T09:38:58.668Z,2.70
2023-04-22T09:41:32.842Z,1.85
2023-04-22T09:44:00.868Z,2.38
2023-04-22T09:46:29.240Z,2.13
2023-04-22T09:48:56.933Z,1.98
2023-04-22T09:51:24.162Z,2.45
2023-04-22T09:54:05.307Z,3.70
2023-04-22T09:59:08.792Z,1.92
2023-04-22T10:01:41.244Z,2.75
2023-04-22T10:04:14.851Z,2.35
2023-04-22T10:06:42.439Z,2.17
2023-04-22T10:09:09.880Z,1.88
2023-04-22T10:11:37.637Z,2.60
2023-04-22T10:14:05.490Z,2.72
2023-04-22T10:16:34.053Z,2.53
2023-04-22T10:19:03.495Z,2.70
2023-04-22T10:21:30.561Z,2.75
2023-04-22T10:23:59.407Z,2.03
2023-04-22T10:29:17.811Z,2.28
2023-04-22T10:31:55.527Z,2.03
2023-04-22T10:34:22.225Z,2.78
2023-04-22T10:36:56.837Z,1.88
2023-04-22T10:39:24.717Z,2.40
2023-04-22T10:41:57.019Z,2.20
2023-04-22T10:44:28.044Z,5.80
2023-04-22T10:46:59.609Z,3.28
2023-04-22T10:49:27.232Z,1.60
2023-04-22T10:52:01.201Z,1.60
2023-04-22T10:54:30.624Z,2.33
2023-04-22T10:57:09.012Z,2.05
2023-04-22T10:59:50.203Z,1.92
2023-04-22T11:02:18.083Z,1.83
2023-04-22T11:04:45.054Z,2.25
2023-04-22T11:07:23.008Z,1.70
2023-04-22T11:10:05.442Z,2.90
2023-04-22T11:12:35.114Z,2.80
2023-04-22T11:15:05.711Z,2.10
2023-04-22T11:17:32.822Z,2.33
2023-04-22T11:19:59.994Z,2.00
2023-04-22T11:22:26.989Z,2.90
2023-04-22T11:25:00.727Z,2.53
2023-04-22T11:27:28.053Z,2.33
2023-04-22T11:30:10.818Z,3.45
2023-04-22T11:32:39.657Z,2.13
2023-04-22T11:37:42.085Z,2.38
2023-04-22T11:40:27.811Z,2.13
2023-04-22T11:42:56.540Z,2.65
2023-04-22T11:45:23.784Z,3.15
2023-04-22T11:47:52.368Z,2.17
2023-04-22T11:50:22.228Z,2.10
2023-04-22T11:52:51.974Z,3.22
2023-04-22T11:55:30.265Z,2.15
2023-04-22T11:57:59.907Z,2.33
2023-04-22T12:00:49.599Z,2.00
2023-04-22T12:03:21.636Z,1.92
2023-04-22T12:05:55.871Z,2.35
2023-04-22T12:08:25.111Z,3.58
2023-04-22T12:10:59.491Z,2.10
2023-04-22T12:13:33.274Z,3.03
2023-04-22T12:16:13.490Z,2.03
2023-04-22T12:18:41.396Z,2.00
2023-04-22T12:21:11.395Z,1.98
2023-04-22T12:23:48.545Z,2.03
2023-04-22T12:26:21.345Z,2.33
2023-04-22T12:28:49.863Z,2.92
2023-04-22T12:31:17.495Z,2.58
2023-04-22T12:33:44.944Z,3.50
2023-04-22T12:36:11.981Z,3.30
2023-04-22T12:38:39.131Z,4.05
2023-04-22T12:41:06.560Z,3.88
2023-04-22T12:43:36.683Z,4.10
2023-04-22T12:46:04.243Z,4.63
2023-04-22T12:48:31.673Z,4.25
2023-04-22T12:50:58.727Z,5.10
2023-04-22T12:53:26.862Z,6.10
2023-04-22T12:55:53.660Z,4.85
2023-04-22T12:58:20.413Z,5.05
2023-04-22T13:00:47.142Z,5.80
2023-04-22T13:03:13.948Z,5.07
2023-04-22T13:05:40.775Z,5.53
2023-04-22T13:08:08.323Z,4.65
2023-04-22T13:10:35.791Z,6.78
2023-04-22T13:13:17.979Z,5.55
2023-04-22T13:15:47.038Z,5.45
2023-04-22T13:18:14.708Z,5.85
2023-04-22T13:20:42.467Z,5.55
2023-04-22T13:23:09.827Z,5.72
2023-04-22T13:25:36.684Z,5.18
2023-04-22T13:28:03.451Z,4.85
2023-04-22T13:30:30.188Z,4.75
2023-04-22T13:32:57.008Z,7.80
2023-04-22T13:35:24.346Z,6.10
2023-04-22T13:37:51.241Z,5.68
2023-04-22T13:40:17.907Z,4.47
2023-04-22T13:42:44.596Z,4.40
2023-04-22T13:45:11.424Z,4.38
2023-04-22T13:47:38.113Z,5.90
2023-04-22T13:50:06.404Z,5.70
2023-04-22T13:52:34.005Z,4.90
2023-04-22T13:55:01.074Z,4.70
2023-04-22T13:57:27.801Z,6.30
2023-04-22T13:59:54.443Z,4.65
2023-04-22T14:02:21.356Z,4.15
2023-04-22T14:04:48.243Z,3.92
2023-04-22T14:07:14.989Z,4.22
2023-04-22T14:09:41.752Z,4.45
2023-04-22T14:12:09.090Z,6.13
2023-04-22T14:14:35.956Z,5.13
2023-04-22T14:17:03.042Z,4.72
2023-04-22T14:19:32.474Z,4.28
2023-04-22T14:21:59.180Z,4.93
2023-04-22T14:24:28.463Z,4.28
2023-04-22T14:26:55.753Z,3.88
2023-04-22T14:29:22.446Z,4.15
2023-04-22T14:31:49.961Z,4.63
2023-04-22T14:34:17.258Z,6.55
2023-04-22T14:36:44.216Z,3.58
2023-04-22T14:39:11.039Z,3.80
2023-04-22T14:41:37.724Z,4.05
2023-04-22T14:44:04.381Z,4.53
2023-04-22T14:46:31.129Z,3.50
2023-04-22T14:48:57.789Z,5.63
2023-04-22T14:51:24.572Z,6.45
2023-04-22T14:53:51.630Z,3.85
2023-04-22T14:56:18.373Z,3.78
2023-04-22T14:58:45.006Z,3.42
2023-04-22T15:01:11.892Z,3.35
2023-04-22T15:03:38.873Z,3.80
2023-04-22T15:06:05.890Z,3.88
2023-04-22T15:08:32.600Z,5.20
2023-04-22T15:10:59.992Z,4.57
2023-04-22T15:13:27.733Z,6.57
2023-04-22T15:15:54.442Z,4.10
2023-04-22T15:18:21.237Z,3.45
2023-04-22T15:20:47.906Z,3.53
2023-04-22T15:23:15.433Z,3.22
2023-04-22T15:25:42.363Z,4.05
2023-04-22T15:28:09.053Z,3.53
2023-04-22T15:30:35.928Z,3.88
2023-04-22T15:33:05.006Z,3.78
2023-04-22T15:37:58.896Z,6.80
2023-04-22T15:40:25.679Z,4.90
2023-04-22T15:42:52.344Z,4.28
2023-04-22T15:45:19.019Z,4.72
2023-04-22T15:47:46.757Z,5.72
2023-04-22T15:50:13.411Z,5.72
2023-04-22T15:52:40.064Z,5.45
2023-04-22T15:55:07.943Z,5.43
2023-04-22T15:57:35.363Z,4.50
2023-04-22T16:00:11.194Z,4.30
2023-04-22T16:02:39.929Z,4.18
2023-04-22T16:05:07.100Z,3.85
2023-04-22T16:07:33.741Z,4.90
2023-04-22T16:10:00.485Z,5.53
2023-04-22T16:12:27.179Z,7.40
2023-04-22T16:14:54.029Z,7.32
2023-04-22T16:17:21.020Z,4.45
2023-04-22T16:19:47.771Z,7.10
2023-04-22T16:22:14.588Z,4.75
2023-04-22T16:24:43.959Z,4.97
2023-04-22T16:27:16.388Z,4.50
2023-04-22T16:29:43.842Z,6.22
2023-04-22T16:32:11.124Z,5.72
2023-04-22T16:34:38.356Z,4.10
2023-04-22T16:37:05.540Z,4.07
2023-04-22T16:39:32.476Z,4.88
2023-04-22T16:41:59.233Z,4.53
2023-04-22T16:44:26.068Z,5.22
2023-04-22T16:46:52.745Z,4.35
2023-04-22T16:49:19.692Z,5.10
2023-04-22T16:51:46.638Z,8.43
2023-04-22T16:54:13.360Z,5.65
2023-04-22T16:56:40.425Z,11.02
2023-04-22T16:59:07.276Z,3.35
2023-04-22T17:01:34.215Z,6.10
2023-04-22T17:04:01.592Z,4.90
2023-04-22T17:06:28.403Z,5.20
2023-04-22T17:08:55.151Z,4.25
2023-04-22T17:11:22.110Z,4.15
2023-04-22T17:13:48.856Z,4.25
2023-04-22T17:16:15.820Z,3.75
2023-04-22T17:18:44.175Z,5.00
2023-04-22T17:21:10.956Z,6.18
2023-04-22T17:23:38.292Z,5.35
2023-04-22T17:26:04.952Z,3.90
2023-04-22T17:28:31.898Z,6.32
2023-04-22T17:30:58.645Z,9.20
2023-04-22T17:33:26.640Z,6.43
2023-04-22T17:35:53.313Z,7.45
2023-04-22T17:38:19.996Z,4.38
2023-04-22T17:40:46.678Z,7.88
2023-04-22T17:43:13.395Z,11.32
2023-04-22T17:45:40.085Z,5.95
2023-04-22T17:48:06.857Z,7.68
2023-04-22T17:50:33.710Z,6.15
2023-04-22T17:53:00.621Z,6.70
2023-04-22T17:55:27.370Z,7.65
2023-04-22T17:57:54.028Z,5.43
2023-04-22T18:00:20.982Z,6.00
2023-04-22T18:02:48.067Z,6.05
2023-04-22T18:05:14.954Z,11.02
2023-04-22T18:07:41.686Z,10.95
2023-04-22T18:10:09.334Z,13.35
2023-04-22T18:12:36.086Z,18.73
2023-04-22T18:15:03.023Z,14.23
2023-04-22T18:17:29.780Z,13.40
2023-04-22T18:20:09.873Z,17.13
2023-04-22T18:22:41.989Z,11.60
2023-04-22T18:25:08.675Z,12.65
2023-04-22T18:27:35.398Z,10.57
2023-04-22T18:30:02.100Z,11.57
2023-04-22T18:32:29.052Z,11.45
2023-04-22T18:34:55.825Z,13.93
2023-04-22T18:37:22.598Z,11.93
2023-04-22T18:39:49.297Z,11.10
2023-04-22T18:42:15.998Z,14.68
2023-04-22T18:44:43.030Z,20.02
2023-04-22T18:47:10.078Z,18.88
2023-04-22T18:49:36.748Z,19.00
2023-04-22T18:52:03.444Z,18.27
2023-04-22T18:54:30.745Z,16.42
2023-04-22T18:56:58.330Z,16.85
2023-04-22T18:59:25.087Z,16.88
2023-04-22T19:01:51.919Z,15.25
2023-04-22T19:04:18.859Z,17.60
2023-04-22T19:06:45.836Z,16.25
2023-04-22T19:09:12.580Z,16.80
2023-04-22T19:11:39.354Z,14.93
2023-04-22T19:14:06.186Z,16.08
2023-04-22T19:16:33.142Z,15.73
2023-04-22T19:18:59.788Z,15.05
2023-04-22T19:21:27.129Z,16.15
2023-04-22T19:23:53.919Z,13.13
2023-04-22T19:26:22.018Z,14.10
2023-04-22T19:28:49.103Z,13.52
2023-04-22T19:31:19.550Z,14.50
2023-04-22T19:33:46.311Z,13.05
2023-04-22T19:36:13.187Z,21.23
2023-04-22T19:38:39.965Z,16.92
2023-04-22T19:41:08.941Z,18.83
2023-04-22T19:43:37.415Z,15.30
2023-04-22T19:46:04.898Z,18.40
2023-04-22T19:48:32.063Z,16.65
2023-04-22T19:50:59.541Z,14.82
2023-04-22T19:53:28.831Z,14.13
2023-04-22T19:58:21.989Z,14.20
2023-04-22T20:00:49.459Z,11.77
2023-04-22T20:03:16.666Z,12.18
2023-04-22T20:05:44.279Z,9.75
2023-04-22T20:08:12.162Z,10.02
2023-04-22T20:10:38.929Z,16.02
2023-04-22T20:13:06.246Z,14.35
2023-04-22T20:15:33.257Z,17.83
2023-04-22T20:18:00.116Z,10.35
2023-04-22T20:20:27.646Z,19.27
2023-04-22T20:22:55.048Z,20.50
2023-04-22T20:25:23.211Z,16.85
2023-04-22T20:27:49.984Z,14.32
2023-04-22T20:30:16.996Z,14.23
2023-04-22T20:32:43.830Z,13.35
2023-04-22T20:35:15.021Z,15.18
2023-04-22T20:37:42.110Z,16.07
2023-04-22T20:40:09.207Z,13.48
2023-04-22T20:42:37.032Z,13.27
2023-04-22T20:45:07.414Z,14.88
2023-04-22T20:47:35.333Z,14.43
2023-04-22T20:50:02.034Z,14.30
2023-04-22T20:52:28.700Z,12.40
2023-04-22T20:54:56.591Z,12.93
2023-04-22T20:57:23.832Z,13.80
2023-04-22T20:59:50.698Z,12.23
2023-04-22T21:02:18.463Z,12.10
2023-04-22T21:04:45.527Z,11.88
2023-04-22T21:07:12.499Z,12.77
2023-04-22T21:09:40.546Z,11.48
2023-04-22T21:12:07.782Z,12.45
2023-04-22T21:14:34.686Z,11.40
2023-04-22T21:17:04.743Z,12.05
2023-04-22T21:19:34.926Z,15.75
2023-04-22T21:22:05.262Z,12.05
2023-04-22T21:24:35.686Z,12.60
2023-04-22T21:27:03.064Z,13.45
2023-04-22T21:29:30.195Z,14.05
2023-04-22T21:32:07.837Z,14.43
2023-04-22T21:34:35.917Z,14.07
2023-04-22T21:37:02.783Z,15.20
2023-04-22T21:39:29.835Z,16.70
2023-04-22T21:41:56.786Z,15.77
2023-04-22T21:44:23.455Z,16.67
2023-04-22T21:46:50.376Z,16.02
2023-04-22T21:49:17.368Z,14.43
2023-04-22T21:51:44.080Z,13.80
2023-04-22T21:54:11.128Z,14.52
2023-04-22T21:56:37.892Z,15.30
2023-04-22T21:59:04.527Z,14.60
2023-04-22T22:01:31.253Z,13.85
2023-04-22T22:03:58.101Z,13.18
2023-04-22T22:06:25.571Z,14.70
2023-04-22T22:08:53.374Z,13.85
2023-04-22T22:11:30.398Z,13.43
2023-04-22T22:13:57.761Z,15.10
2023-04-22T22:16:24.723Z,13.63
2023-04-22T22:18:52.019Z,14.40
2023-04-22T22:21:18.784Z,14.75
2023-04-22T22:23:45.428Z,14.23
2023-04-22T22:26:12.178Z,13.77
2023-04-22T22:28:39.480Z,13.30
2023-04-22T22:31:06.949Z,14.45
2023-04-22T22:33:33.736Z,14.70
2023-04-22T22:36:00.465Z,13.23
2023-04-22T22:38:27.167Z,12.60
2023-04-22T22:40:53.819Z,13.30
2023-04-22T22:43:20.781Z,12.68
2023-04-22T22:45:47.509Z,13.88
2023-04-22T22:48:14.257Z,13.80
2023-04-22T22:50:41.086Z,14.27
2023-04-22T22:53:07.810Z,14.02
2023-04-22T22:55:34.790Z,12.13
2023-04-22T22:58:01.495Z,11.95
2023-04-22T23:00:28.212Z,11.57
2023-04-22T23:02:55.721Z,11.75
2023-04-22T23:05:22.521Z,11.50
2023-04-22T23:07:49.198Z,11.88
2023-04-22T23:10:15.947Z,11.05
2023-04-22T23:12:42.635Z,10.73
2023-04-22T23:15:09.761Z,10.90
2023-04-22T23:17:36.933Z,10.55
2023-04-22T23:20:04.327Z,11.30
2023-04-22T23:22:32.184Z,14.23
2023-04-22T23:24:59.362Z,15.85
2023-04-22T23:27:26.349Z,13.70
2023-04-22T23:29:53.462Z,13.82
2023-04-22T23:32:20.862Z,12.93
2023-04-22T23:34:49.575Z,12.43
2023-04-22T23:37:16.500Z,11.55
2023-04-22T23:39:43.355Z,11.48
2023-04-22T23:42:10.550Z,11.00
2023-04-22T23:44:37.307Z,11.25
2023-04-22T23:47:05.496Z,11.80
2023-04-22T23:49:32.263Z,12.07
2023-04-22T23:51:59.590Z,11.23
2023-04-22T23:54:26.965Z,13.32
2023-04-22T23:56:54.063Z,14.70
2023-04-22T23:59:20.961Z,11.68
